Time;durP1;ratioP1;P1;durP2;ratioP2;P2;SDS_P1;SDS_P2;PMS_P1;PMS_P2;Temp;Humidity;BMP_temperature;BMP_pressure;BME280_temperature;BME280_humidity;BME280_pressure;Samples;Min_cycle;Max_cycle;Signal;HPM_P1;HPM_P2
2023/12/06 00:01:18;;;;;;;5.57;4.77;;;6.00;42.60;;;;;;5033491;28;20170;-53
2023/12/06 00:03:43;;;;;;;4.83;3.17;;;6.00;42.60;;;;;;5033352;28;20186;-50
2023/12/06 00:06:09;;;;;;;3.40;3.20;;;6.00;42.60;;;;;;5033373;28;20170;-50
2023/12/06 00:08:35;;;;;;;9.03;3.70;;;6.00;42.50;;;;;;5033138;28;20174;-53
2023/12/06 00:11:01;;;;;;;7.90;3.87;;;6.00;42.50;;;;;;5033230;28;20509;-55
2023/12/06 00:13:26;;;;;;;4.93;4.47;;;6.00;42.70;;;;;;5033196;28;20213;-51
2023/12/06 00:15:52;;;;;;;4.07;3.33;;;5.90;42.80;;;;;;5033014;28;20193;-52
2023/12/06 00:18:18;;;;;;;4.70;3.77;;;5.90;42.80;;;;;;5033161;28;20564;-55
2023/12/06 00:20:44;;;;;;;3.93;3.60;;;5.90;42.90;;;;;;5032971;28;20173;-50
2023/12/06 00:23:09;;;;;;;4.30;3.22;;;5.90;42.90;;;;;;5032901;28;20202;-50
2023/12/06 00:25:35;;;;;;;5.47;2.30;;;5.90;42.80;;;;;;5032835;28;20177;-57
2023/12/06 00:28:03;;;;;;;6.00;3.40;;;5.90;42.90;;;;;;5032992;28;20170;-51
2023/12/06 00:30:29;;;;;;;13.07;7.22;;;5.80;42.80;;;;;;5032924;28;20172;-53
2023/12/06 00:32:55;;;;;;;14.20;4.30;;;5.80;42.70;;;;;;5032872;28;20272;-51
2023/12/06 00:35:21;;;;;;;5.63;3.00;;;5.80;43.00;;;;;;5032913;28;20543;-51
2023/12/06 00:37:46;;;;;;;5.23;1.90;;;5.60;43.10;;;;;;5032479;28;20190;-56
2023/12/06 00:40:12;;;;;;;4.17;3.43;;;5.60;43.20;;;;;;5032727;28;20621;-56
2023/12/06 00:42:38;;;;;;;5.18;3.53;;;5.60;43.30;;;;;;5032586;28;20735;-51
2023/12/06 00:45:04;;;;;;;6.80;4.23;;;5.50;43.50;;;;;;5032745;28;20186;-57
2023/12/06 00:47:30;;;;;;;3.90;3.33;;;5.50;43.40;;;;;;5032492;28;20174;-56
2023/12/06 00:49:56;;;;;;;7.90;7.00;;;5.60;43.20;;;;;;5032620;28;20166;-51
2023/12/06 00:52:22;;;;;;;7.73;5.27;;;5.60;43.00;;;;;;5032330;28;20228;-49
2023/12/06 00:54:49;;;;;;;4.28;3.80;;;5.60;43.00;;;;;;5032514;28;20170;-57
2023/12/06 00:57:15;;;;;;;7.43;5.70;;;5.60;43.00;;;;;;5032308;28;20235;-51
2023/12/06 00:59:41;;;;;;;7.50;4.30;;;5.50;43.00;;;;;;5032374;28;20737;-53
2023/12/06 01:02:07;;;;;;;4.80;4.40;;;5.50;43.00;;;;;;5032340;28;20179;-54
2023/12/06 01:04:39;;;;;;;7.43;4.97;;;5.40;43.10;;;;;;5032426;28;20276;-51
2023/12/06 01:07:05;;;;;;;11.77;5.75;;;5.40;43.30;;;;;;5032029;28;20579;-53
2023/12/06 01:09:30;;;;;;;16.42;5.05;;;5.30;43.40;;;;;;5032272;28;20174;-57
2023/12/06 01:11:57;;;;;;;7.23;4.80;;;5.20;43.60;;;;;;5032213;28;20228;-51
2023/12/06 01:14:23;;;;;;;4.30;3.88;;;5.20;43.60;;;;;;5032171;28;20190;-52
2023/12/06 01:16:49;;;;;;;10.10;5.07;;;5.10;44.00;;;;;;5032032;28;20257;-54
2023/12/06 01:19:16;;;;;;;3.50;3.20;;;5.00;44.20;;;;;;5032112;28;20672;-49
2023/12/06 01:21:42;;;;;;;4.53;3.55;;;5.00;44.10;;;;;;5031313;28;20488;-52
2023/12/06 01:24:08;;;;;;;14.80;4.65;;;5.10;43.90;;;;;;5032015;28;20190;-50
2023/12/06 01:26:34;;;;;;;11.07;7.43;;;5.10;43.90;;;;;;5031951;28;20174;-51
2023/12/06 01:29:03;;;;;;;7.03;4.57;;;5.10;43.90;;;;;;5032014;28;20420;-52
2023/12/06 01:31:29;;;;;;;10.85;7.68;;;5.20;43.70;;;;;;5032062;28;20409;-54
2023/12/06 01:33:55;;;;;;;13.38;3.33;;;5.20;43.60;;;;;;5031947;28;20190;-51
2023/12/06 01:36:21;;;;;;;3.30;2.93;;;5.20;43.60;;;;;;5031680;28;20178;-50
2023/12/06 01:38:48;;;;;;;5.07;3.83;;;5.20;43.50;;;;;;5031857;28;20704;-56
2023/12/06 01:41:13;;;;;;;6.07;3.15;;;5.20;43.60;;;;;;5031810;28;20405;-50
2023/12/06 01:43:43;;;;;;;13.07;3.67;;;5.20;43.50;;;;;;5031838;28;20281;-50
2023/12/06 01:46:10;;;;;;;4.85;3.47;;;5.20;43.50;;;;;;5031754;28;20170;-57
2023/12/06 01:48:36;;;;;;;3.60;2.70;;;5.20;43.80;;;;;;5031741;28;20198;-49
2023/12/06 01:51:04;;;;;;;3.00;2.80;;;5.20;43.70;;;;;;5031794;28;20181;-53
2023/12/06 01:53:33;;;;;;;7.20;4.38;;;5.20;43.70;;;;;;5031711;28;20201;-52
2023/12/06 01:56:00;;;;;;;4.38;3.53;;;5.20;43.70;;;;;;5031653;28;20217;-49
2023/12/06 01:58:28;;;;;;;27.63;6.20;;;5.30;43.70;;;;;;5031710;28;20540;-53
2023/12/06 02:00:55;;;;;;;9.23;6.78;;;5.30;43.60;;;;;;5031689;28;20162;-55
2023/12/06 02:03:21;;;;;;;7.13;6.47;;;5.30;43.60;;;;;;5031602;28;20190;-50
2023/12/06 02:05:48;;;;;;;10.50;4.78;;;5.30;43.50;;;;;;5031540;28;20166;-53
2023/12/06 02:08:14;;;;;;;8.50;4.25;;;5.30;43.40;;;;;;5031647;28;20185;-55
2023/12/06 02:10:39;;;;;;;7.50;5.60;;;5.30;43.50;;;;;;5031588;28;20174;-52
2023/12/06 02:13:05;;;;;;;27.83;5.70;;;5.30;43.40;;;;;;5031493;28;20546;-53
2023/12/06 02:15:31;;;;;;;8.93;5.13;;;5.30;43.40;;;;;;5031475;28;20178;-55
2023/12/06 02:17:57;;;;;;;5.90;3.33;;;5.30;43.30;;;;;;5031417;28;20201;-51
2023/12/06 02:20:24;;;;;;;11.43;5.40;;;5.30;43.40;;;;;;5031431;28;20228;-51
2023/12/06 02:22:51;;;;;;;12.20;5.35;;;5.20;43.30;;;;;;5031363;28;20479;-56
2023/12/06 02:25:17;;;;;;;11.63;4.38;;;5.20;43.40;;;;;;5031512;28;20177;-57
2023/12/06 02:27:44;;;;;;;3.77;2.83;;;5.20;43.40;;;;;;5031449;28;20533;-50
2023/12/06 02:30:12;;;;;;;4.82;4.35;;;5.20;43.40;;;;;;5031421;28;20432;-56
2023/12/06 02:32:38;;;;;;;6.95;3.53;;;5.20;43.50;;;;;;5031481;28;20779;-57
2023/12/06 02:35:26;;;;;;;3.20;2.63;;;5.20;43.50;;;;;;5035095;28;20169;-51
2023/12/06 02:37:55;;;;;;;3.90;3.35;;;5.20;43.60;;;;;;5034886;28;20571;-51
2023/12/06 02:40:23;;;;;;;9.25;4.13;;;5.20;43.60;;;;;;5034974;28;20256;-54
2023/12/06 02:42:49;;;;;;;9.18;5.13;;;5.20;43.50;;;;;;5034825;28;20193;-50
2023/12/06 02:45:15;;;;;;;7.77;5.73;;;5.20;43.50;;;;;;5034944;28;20166;-57
2023/12/06 02:47:41;;;;;;;2.55;2.30;;;5.20;43.50;;;;;;5034679;28;20930;-55
2023/12/06 02:50:07;;;;;;;6.33;2.97;;;5.20;43.40;;;;;;5034815;28;20175;-49
2023/12/06 02:52:33;;;;;;;3.85;2.38;;;5.10;43.50;;;;;;5034668;28;20166;-53
2023/12/06 02:54:59;;;;;;;5.43;3.77;;;5.10;43.50;;;;;;5034833;28;20649;-54
2023/12/06 02:57:24;;;;;;;9.43;4.53;;;5.10;43.50;;;;;;5034432;28;20413;-51
2023/12/06 02:59:50;;;;;;;9.47;5.30;;;5.10;43.60;;;;;;5034658;28;20236;-50
2023/12/06 03:02:16;;;;;;;9.40;5.60;;;5.10;43.60;;;;;;5034601;28;20174;-54
2023/12/06 03:04:42;;;;;;;6.10;2.93;;;5.20;43.40;;;;;;5034482;28;20237;-57
2023/12/06 03:07:08;;;;;;;3.63;1.67;;;5.20;43.40;;;;;;5034409;28;20496;-48
2023/12/06 03:09:33;;;;;;;2.23;1.77;;;5.20;43.20;;;;;;5034479;28;20175;-57
2023/12/06 03:11:59;;;;;;;7.87;7.07;;;5.20;43.20;;;;;;5034285;28;20169;-56
2023/12/06 03:14:25;;;;;;;6.03;2.97;;;5.20;43.20;;;;;;5034418;28;20209;-50
2023/12/06 03:16:50;;;;;;;7.90;5.93;;;5.30;43.20;;;;;;5034231;28;20257;-54
2023/12/06 03:19:16;;;;;;;6.13;5.63;;;5.30;43.10;;;;;;5034233;28;20288;-54
2023/12/06 03:21:42;;;;;;;6.80;2.97;;;5.30;43.00;;;;;;5034101;28;20201;-51
2023/12/06 03:24:07;;;;;;;7.57;1.90;;;5.30;43.00;;;;;;5034105;28;20527;-52
2023/12/06 03:26:33;;;;;;;6.77;4.37;;;5.30;43.30;;;;;;5033901;28;20170;-55
2023/12/06 03:28:59;;;;;;;3.83;2.47;;;5.30;43.00;;;;;;5034152;28;20715;-50
2023/12/06 03:31:25;;;;;;;5.73;1.30;;;5.20;43.00;;;;;;5034068;28;20174;-53
2023/12/06 03:33:50;;;;;;;3.80;3.43;;;5.30;43.10;;;;;;5033975;28;20198;-53
2023/12/06 03:36:16;;;;;;;7.13;4.97;;;5.20;43.40;;;;;;5033828;28;20257;-51
2023/12/06 03:38:42;;;;;;;4.83;3.97;;;5.20;43.40;;;;;;5033887;28;20613;-49
2023/12/06 03:41:08;;;;;;;1.60;1.50;;;5.20;43.40;;;;;;5033884;28;20178;-54
2023/12/06 03:43:33;;;;;;;3.20;2.90;;;5.20;43.40;;;;;;5033405;28;20193;-51
2023/12/06 03:45:59;;;;;;;8.33;4.47;;;5.20;43.40;;;;;;5033872;28;20175;-49
2023/12/06 03:48:25;;;;;;;6.30;4.47;;;5.20;43.40;;;;;;5033726;28;20257;-54
2023/12/06 03:50:51;;;;;;;4.77;4.47;;;5.10;43.40;;;;;;5033684;28;20169;-52
2023/12/06 03:53:17;;;;;;;5.00;3.50;;;5.10;43.50;;;;;;5033661;28;20421;-50
2023/12/06 03:55:43;;;;;;;6.63;5.07;;;5.10;43.50;;;;;;5033388;28;20532;-56
2023/12/06 03:58:09;;;;;;;11.20;5.28;;;5.10;43.50;;;;;;5033529;28;20466;-52
2023/12/06 04:00:34;;;;;;;4.50;3.33;;;5.00;43.60;;;;;;5033497;28;20668;-50
2023/12/06 04:03:00;;;;;;;2.07;1.87;;;5.10;43.60;;;;;;5033348;28;20425;-53
2023/12/06 04:05:26;;;;;;;8.23;6.07;;;5.10;43.60;;;;;;5033411;28;20162;-53
2023/12/06 04:07:52;;;;;;;2.40;2.20;;;5.10;43.50;;;;;;5033328;28;20184;-50
2023/12/06 04:10:18;;;;;;;7.90;6.30;;;5.10;43.50;;;;;;5033188;28;20174;-50
2023/12/06 04:12:43;;;;;;;5.97;5.50;;;5.10;43.50;;;;;;5033187;28;20190;-56
2023/12/06 04:15:11;;;;;;;12.00;4.00;;;5.10;43.40;;;;;;5033298;28;20178;-51
2023/12/06 04:17:36;;;;;;;4.38;2.70;;;5.10;43.40;;;;;;5032897;28;20178;-55
2023/12/06 04:20:05;;;;;;;2.10;1.40;;;5.10;43.40;;;;;;5033191;28;20181;-50
2023/12/06 04:22:31;;;;;;;2.53;2.33;;;5.10;43.40;;;;;;5032971;28;20226;-55
2023/12/06 04:24:57;;;;;;;7.63;4.27;;;5.10;43.40;;;;;;5032982;28;20194;-50
2023/12/06 04:27:22;;;;;;;3.23;2.90;;;5.20;43.30;;;;;;5032830;28;20404;-52
2023/12/06 04:29:48;;;;;;;4.00;2.20;;;5.20;43.20;;;;;;5032916;28;20409;-55
2023/12/06 04:32:14;;;;;;;5.30;3.10;;;5.20;43.20;;;;;;5032860;28;20405;-57
2023/12/06 04:34:51;;;;;;;3.40;2.20;;;5.20;43.20;;;;;;5032971;28;20193;-53
2023/12/06 04:37:17;;;;;;;1.40;1.30;;;5.20;43.20;;;;;;5032818;28;20176;-55
2023/12/06 04:39:43;;;;;;;4.53;4.13;;;5.20;43.20;;;;;;5032647;28;20202;-51
2023/12/06 04:42:09;;;;;;;8.80;2.93;;;5.20;43.10;;;;;;5032696;28;20173;-50
2023/12/06 04:44:35;;;;;;;4.73;3.07;;;5.20;43.20;;;;;;5032690;28;20190;-51
2023/12/06 04:47:01;;;;;;;13.98;3.33;;;5.20;43.20;;;;;;5032504;28;20424;-54
2023/12/06 04:49:27;;;;;;;3.43;3.13;;;5.20;43.20;;;;;;5032590;28;20174;-50
2023/12/06 04:51:52;;;;;;;3.10;2.87;;;5.20;43.30;;;;;;5032512;28;20220;-51
2023/12/06 04:54:18;;;;;;;4.87;3.53;;;5.30;43.40;;;;;;5032444;28;20265;-55
2023/12/06 04:56:44;;;;;;;17.40;2.77;;;5.20;43.20;;;;;;5031649;28;20553;-53
2023/12/06 04:59:09;;;;;;;3.00;2.70;;;5.30;43.20;;;;;;5032463;28;20229;-53
2023/12/06 05:01:35;;;;;;;6.47;3.37;;;5.20;43.20;;;;;;5032426;28;20170;-51
2023/12/06 05:04:01;;;;;;;2.93;2.63;;;5.30;43.30;;;;;;5032299;28;20679;-53
2023/12/06 05:06:27;;;;;;;18.50;6.03;;;5.20;43.30;;;;;;5032111;28;20170;-53
2023/12/06 05:08:53;;;;;;;5.90;3.40;;;5.30;43.40;;;;;;5032235;28;20170;-51
2023/12/06 05:11:18;;;;;;;7.83;3.73;;;5.30;43.30;;;;;;5032201;28;20533;-53
2023/12/06 05:13:44;;;;;;;3.63;2.93;;;5.30;43.30;;;;;;5032233;28;20194;-56
2023/12/06 05:16:10;;;;;;;3.72;2.65;;;5.30;43.20;;;;;;5031968;28;20173;-57
2023/12/06 05:18:36;;;;;;;7.13;5.60;;;5.30;43.30;;;;;;5032130;28;20189;-52
2023/12/06 05:21:02;;;;;;;3.20;2.67;;;5.40;43.30;;;;;;5031851;28;20185;-54
2023/12/06 05:23:27;;;;;;;5.17;3.23;;;5.30;43.30;;;;;;5030806;28;20190;-51
2023/12/06 05:25:53;;;;;;;3.87;3.60;;;5.40;43.10;;;;;;5031958;28;20524;-50
2023/12/06 05:28:19;;;;;;;3.40;3.13;;;5.40;43.20;;;;;;5032126;28;20170;-52
2023/12/06 05:30:44;;;;;;;10.83;3.57;;;5.40;43.10;;;;;;5031961;28;20173;-51
2023/12/06 05:33:10;;;;;;;8.93;5.63;;;5.40;43.10;;;;;;5031925;28;20248;-54
2023/12/06 05:35:37;;;;;;;13.30;6.23;;;5.40;43.30;;;;;;5030718;28;20516;-57
2023/12/06 05:38:03;;;;;;;6.75;4.15;;;5.40;43.20;;;;;;5031951;28;20281;-58
2023/12/06 05:40:29;;;;;;;2.60;2.40;;;5.40;43.20;;;;;;5031946;28;20220;-56
2023/12/06 05:42:54;;;;;;;3.73;3.20;;;5.40;43.10;;;;;;5031962;28;20413;-50
2023/12/06 05:45:20;;;;;;;6.20;4.67;;;5.40;43.20;;;;;;5031856;28;20413;-56
2023/12/06 05:47:46;;;;;;;3.57;2.70;;;5.40;43.90;;;;;;5031665;28;20641;-50
2023/12/06 05:50:13;;;;;;;10.23;5.00;;;5.40;43.30;;;;;;5031763;28;20174;-50
2023/12/06 05:52:38;;;;;;;13.45;4.40;;;5.40;43.20;;;;;;5031737;28;20193;-57
2023/12/06 05:55:05;;;;;;;7.73;5.10;;;5.50;43.40;;;;;;5032005;28;20178;-53
2023/12/06 05:57:32;;;;;;;6.07;4.15;;;5.50;43.30;;;;;;5031610;28;20166;-50
2023/12/06 05:59:58;;;;;;;6.60;6.10;;;5.40;43.20;;;;;;5031721;28;20240;-52
2023/12/06 06:02:24;;;;;;;3.28;3.08;;;5.50;43.30;;;;;;5031654;28;20193;-52
2023/12/06 06:04:50;;;;;;;5.50;3.80;;;5.40;43.30;;;;;;5031554;28;20198;-52
2023/12/06 06:07:16;;;;;;;10.90;4.13;;;5.50;43.30;;;;;;5032849;28;20197;-55
2023/12/06 06:09:42;;;;;;;5.00;3.47;;;5.40;43.20;;;;;;5035613;28;20180;-50
2023/12/06 06:12:08;;;;;;;2.50;2.25;;;5.50;43.40;;;;;;5035565;28;20235;-52
2023/12/06 06:14:34;;;;;;;5.50;4.57;;;5.50;43.30;;;;;;5035366;28;20194;-55
2023/12/06 06:17:00;;;;;;;4.67;4.27;;;5.50;43.20;;;;;;5035339;28;20179;-52
2023/12/06 06:19:25;;;;;;;2.47;2.27;;;5.50;43.20;;;;;;5035263;28;20204;-55
2023/12/06 06:21:51;;;;;;;6.53;4.00;;;5.60;43.10;;;;;;5035210;28;20425;-51
2023/12/06 06:24:17;;;;;;;12.33;5.57;;;5.60;43.10;;;;;;5035265;28;20673;-51
2023/12/06 06:26:43;;;;;;;3.90;3.50;;;5.50;43.20;;;;;;5035205;28;20648;-53
2023/12/06 06:29:09;;;;;;;7.17;6.20;;;5.50;43.30;;;;;;5035184;28;20906;-56
2023/12/06 06:31:34;;;;;;;2.87;2.63;;;5.50;43.40;;;;;;5035220;28;20680;-50
2023/12/06 06:34:03;;;;;;;5.73;3.87;;;5.60;43.10;;;;;;5035071;28;20194;-53
2023/12/06 06:36:29;;;;;;;14.85;4.00;;;5.60;43.20;;;;;;5034967;28;20174;-58
2023/12/06 06:38:55;;;;;;;9.40;5.47;;;5.60;43.90;;;;;;5035020;28;20197;-51
2023/12/06 06:41:24;;;;;;;3.27;2.97;;;5.60;43.20;;;;;;5035020;28;20179;-56
2023/12/06 06:43:50;;;;;;;3.58;2.85;;;5.70;43.20;;;;;;5034939;28;20220;-52
2023/12/06 06:46:16;;;;;;;5.97;3.58;;;5.70;43.20;;;;;;5034803;28;20249;-53
2023/12/06 06:48:42;;;;;;;6.73;5.03;;;5.70;43.20;;;;;;5034859;28;20859;-55
2023/12/06 06:51:09;;;;;;;4.77;2.63;;;5.70;43.20;;;;;;5034812;28;20170;-53
2023/12/06 06:53:35;;;;;;;7.07;2.35;;;6.30;43.50;;;;;;5034748;28;20517;-53
2023/12/06 06:56:02;;;;;;;5.60;5.03;;;5.70;43.20;;;;;;5034605;28;20249;-54
2023/12/06 06:58:27;;;;;;;11.00;4.35;;;5.70;43.00;;;;;;5034557;28;20997;-50
2023/12/06 07:00:53;;;;;;;10.20;5.00;;;5.70;43.20;;;;;;5034622;28;20182;-53
2023/12/06 07:03:21;;;;;;;11.47;5.00;;;5.70;43.10;;;;;;5034964;28;20484;-56
2023/12/06 07:05:46;;;;;;;4.82;3.08;;;5.80;43.00;;;;;;5034368;28;20422;-51
2023/12/06 07:08:12;;;;;;;3.23;3.03;;;5.70;43.30;;;;;;5034595;28;20190;-52
2023/12/06 07:10:38;;;;;;;5.83;5.20;;;5.80;43.10;;;;;;5034470;28;20540;-59
2023/12/06 07:13:05;;;;;;;6.50;2.83;;;5.70;43.20;;;;;;5034354;28;20182;-52
2023/12/06 07:15:31;;;;;;;7.22;2.88;;;5.70;43.30;;;;;;5034280;28;20186;-50
2023/12/06 07:17:57;;;;;;;4.40;2.40;;;5.70;43.20;;;;;;5034219;28;20198;-59
2023/12/06 07:20:24;;;;;;;3.33;3.03;;;5.80;43.20;;;;;;5033535;28;20782;-53
2023/12/06 07:22:50;;;;;;;3.60;3.28;;;5.80;43.10;;;;;;5034119;28;20236;-49
2023/12/06 07:25:16;;;;;;;8.00;5.37;;;5.80;43.00;;;;;;5034254;28;20162;-52
2023/12/06 07:27:45;;;;;;;3.43;3.13;;;5.80;43.00;;;;;;5034032;28;20419;-55
2023/12/06 07:30:18;;;;;;;5.53;2.88;;;5.80;42.90;;;;;;5034088;28;20401;-50
2023/12/06 07:32:45;;;;;;;8.95;4.75;;;5.90;42.90;;;;;;5034024;28;20214;-57
2023/12/06 07:35:11;;;;;;;3.97;1.67;;;5.90;43.00;;;;;;5034070;28;20174;-54
2023/12/06 07:37:36;;;;;;;14.73;3.13;;;5.90;42.80;;;;;;5033772;28;20170;-49
2023/12/06 07:40:03;;;;;;;9.87;3.00;;;5.90;42.90;;;;;;5033930;28;20447;-53
2023/12/06 07:42:29;;;;;;;7.78;6.22;;;5.90;43.00;;;;;;5033841;28;20173;-58
2023/12/06 07:44:55;;;;;;;8.05;3.78;;;5.90;43.00;;;;;;5033850;28;20575;-50
2023/12/06 07:47:21;;;;;;;4.00;3.70;;;6.00;42.90;;;;;;5033639;28;20193;-49
2023/12/06 07:49:46;;;;;;;10.53;4.50;;;6.00;42.90;;;;;;5033846;28;20170;-55
2023/12/06 07:52:12;;;;;;;9.77;3.40;;;5.90;43.10;;;;;;5033774;28;20249;-52
2023/12/06 07:54:38;;;;;;;14.03;2.97;;;6.00;43.10;;;;;;5033597;28;20191;-52
2023/12/06 07:57:04;;;;;;;5.10;4.60;;;6.00;43.20;;;;;;5033490;28;20652;-57
2023/12/06 07:59:30;;;;;;;6.13;2.70;;;6.00;43.10;;;;;;5033415;28;20202;-51
2023/12/06 08:01:55;;;;;;;7.43;5.07;;;6.00;43.00;;;;;;5033547;28;20204;-51
2023/12/06 08:04:21;;;;;;;3.73;3.43;;;6.10;43.10;;;;;;5033431;28;20202;-55
2023/12/06 08:06:47;;;;;;;5.03;3.90;;;6.10;43.10;;;;;;5033321;28;20544;-59
2023/12/06 08:09:13;;;;;;;5.13;4.00;;;6.10;43.10;;;;;;5033479;28;20181;-51
2023/12/06 08:11:39;;;;;;;8.23;3.97;;;6.10;43.10;;;;;;5033313;28;20257;-59
2023/12/06 08:14:05;;;;;;;4.32;3.00;;;6.10;43.10;;;;;;5033190;28;20194;-57
2023/12/06 08:16:31;;;;;;;11.05;4.25;;;6.10;43.10;;;;;;5031942;28;20665;-51
2023/12/06 08:18:57;;;;;;;5.93;3.33;;;6.10;43.20;;;;;;5033126;28;20210;-53
2023/12/06 08:21:24;;;;;;;6.43;4.47;;;6.10;43.20;;;;;;5033001;28;20248;-56
2023/12/06 08:23:50;;;;;;;6.40;3.50;;;6.10;43.40;;;;;;5033081;28;20276;-51
2023/12/06 08:26:16;;;;;;;10.57;5.97;;;6.00;43.10;;;;;;5032900;28;20261;-57
2023/12/06 08:28:42;;;;;;;10.55;6.10;;;6.10;43.10;;;;;;5032916;28;20466;-50
2023/12/06 08:31:10;;;;;;;5.03;4.50;;;6.10;43.00;;;;;;5033000;28;20179;-54
2023/12/06 08:33:36;;;;;;;6.47;5.88;;;6.00;43.10;;;;;;5032853;28;20241;-53
2023/12/06 08:36:02;;;;;;;5.77;4.70;;;6.10;43.10;;;;;;5032743;28;20603;-53
2023/12/06 08:38:28;;;;;;;4.93;3.22;;;6.10;43.10;;;;;;5032815;28;20209;-55
2023/12/06 08:40:54;;;;;;;4.80;4.40;;;6.10;43.00;;;;;;5032731;28;20751;-50
2023/12/06 08:43:20;;;;;;;3.13;2.27;;;6.20;43.00;;;;;;5032676;28;20194;-50
2023/12/06 08:45:46;;;;;;;1.87;1.63;;;6.20;42.80;;;;;;5032569;28;20167;-54
2023/12/06 08:48:11;;;;;;;4.60;4.20;;;6.20;42.80;;;;;;5032709;28;20174;-51
2023/12/06 08:50:38;;;;;;;5.67;4.60;;;6.20;42.70;;;;;;5032633;28;20185;-51
2023/12/06 08:53:03;;;;;;;4.07;3.67;;;6.20;42.60;;;;;;5032518;28;20265;-56
2023/12/06 08:55:29;;;;;;;3.97;3.67;;;6.30;42.70;;;;;;5032282;28;20261;-52
2023/12/06 08:57:55;;;;;;;2.63;2.43;;;6.30;42.70;;;;;;5032425;28;20166;-53
2023/12/06 09:00:21;;;;;;;6.30;2.63;;;6.40;42.50;;;;;;5032524;28;20387;-51
2023/12/06 09:02:46;;;;;;;10.90;5.73;;;6.30;42.40;;;;;;5032351;28;20186;-50
2023/12/06 09:05:12;;;;;;;10.57;6.47;;;6.40;42.60;;;;;;5032414;28;20163;-52
2023/12/06 09:07:38;;;;;;;4.20;2.10;;;6.30;42.50;;;;;;5032206;28;20575;-58
2023/12/06 09:10:05;;;;;;;18.02;7.57;;;6.40;42.30;;;;;;5032295;28;20261;-51
2023/12/06 09:12:31;;;;;;;7.35;4.88;;;6.30;42.40;;;;;;5032003;28;20218;-53
2023/12/06 09:14:57;;;;;;;5.27;3.87;;;6.40;42.70;;;;;;5032260;28;20269;-50
2023/12/06 09:17:22;;;;;;;9.10;2.83;;;6.40;42.50;;;;;;5032033;28;20408;-51
2023/12/06 09:19:48;;;;;;;5.63;2.43;;;6.40;42.50;;;;;;5032184;28;20691;-56
2023/12/06 09:22:15;;;;;;;7.43;3.13;;;6.50;42.50;;;;;;5032003;28;20586;-52
2023/12/06 09:24:43;;;;;;;5.53;3.38;;;6.50;42.40;;;;;;5031986;28;20207;-50
2023/12/06 09:27:09;;;;;;;5.07;2.42;;;6.50;42.30;;;;;;5031943;28;20174;-52
2023/12/06 09:29:34;;;;;;;9.93;4.57;;;6.50;42.40;;;;;;5032264;28;20671;-55
2023/12/06 09:32:00;;;;;;;19.10;8.27;;;6.50;42.30;;;;;;5031945;28;20212;-51
2023/12/06 09:34:26;;;;;;;9.43;5.00;;;6.60;42.30;;;;;;5031974;28;20235;-51
2023/12/06 09:36:51;;;;;;;5.37;4.90;;;6.60;42.20;;;;;;5031767;28;20536;-52
2023/12/06 09:39:20;;;;;;;4.80;3.57;;;6.60;42.10;;;;;;5031841;28;20205;-57
2023/12/06 09:41:46;;;;;;;8.25;4.22;;;6.70;42.20;;;;;;5031369;28;20166;-49
2023/12/06 09:44:15;;;;;;;9.70;3.70;;;6.70;42.20;;;;;;5031810;28;20194;-50
2023/12/06 09:46:43;;;;;;;4.32;2.80;;;6.70;42.10;;;;;;5031712;28;20162;-55
2023/12/06 09:49:10;;;;;;;15.02;2.80;;;6.80;42.20;;;;;;5031915;28;20197;-51
2023/12/06 09:51:36;;;;;;;3.33;3.15;;;6.80;41.80;;;;;;5031770;28;20198;-51
2023/12/06 09:54:01;;;;;;;5.32;3.15;;;6.80;42.00;;;;;;5031666;28;20917;-58
2023/12/06 09:56:27;;;;;;;3.33;3.07;;;6.80;42.10;;;;;;5031689;28;20297;-51
2023/12/06 09:58:53;;;;;;;5.80;3.50;;;6.80;41.90;;;;;;5031690;28;20560;-58
2023/12/06 10:01:19;;;;;;;4.50;4.20;;;6.80;42.00;;;;;;5031683;28;20772;-58
2023/12/06 10:03:46;;;;;;;4.73;3.47;;;6.80;42.10;;;;;;5031561;28;20775;-50
2023/12/06 10:06:12;;;;;;;4.85;3.13;;;6.90;41.90;;;;;;5031668;28;20204;-51
2023/12/06 10:08:38;;;;;;;4.75;3.38;;;6.90;42.10;;;;;;5031527;28;20178;-56
2023/12/06 10:11:04;;;;;;;14.23;3.80;;;6.90;41.80;;;;;;5031660;28;20189;-53
2023/12/06 10:13:32;;;;;;;5.93;3.17;;;6.90;41.80;;;;;;5031520;28;20968;-50
2023/12/06 10:15:58;;;;;;;6.68;4.25;;;7.00;42.00;;;;;;5031579;28;20640;-53
2023/12/06 10:18:24;;;;;;;9.38;6.70;;;7.00;41.90;;;;;;5031562;28;20783;-52
2023/12/06 10:20:50;;;;;;;5.00;3.35;;;7.00;41.70;;;;;;5031376;28;20167;-51
2023/12/06 10:23:16;;;;;;;10.70;3.50;;;7.00;41.70;;;;;;5031429;28;20212;-60
2023/12/06 10:25:45;;;;;;;5.10;4.70;;;7.00;41.80;;;;;;5031358;28;20860;-54
2023/12/06 10:28:11;;;;;;;15.25;5.57;;;7.00;41.80;;;;;;5031552;28;20273;-52
2023/12/06 10:30:37;;;;;;;6.00;4.17;;;7.00;41.80;;;;;;5031448;28;20189;-53
2023/12/06 10:33:04;;;;;;;8.27;7.30;;;7.00;41.90;;;;;;5031448;28;20431;-59
2023/12/06 10:35:32;;;;;;;12.07;5.57;;;7.00;41.80;;;;;;5031301;28;20722;-57
2023/12/06 10:37:59;;;;;;;8.85;5.10;;;7.00;41.70;;;;;;5031230;28;20186;-51
2023/12/06 10:40:26;;;;;;;4.70;1.98;;;7.10;41.70;;;;;;5031374;28;20257;-57
2023/12/06 10:43:04;;;;;;;14.52;3.60;;;7.10;41.70;;;;;;5031310;28;20668;-59
2023/12/06 10:45:32;;;;;;;3.38;2.83;;;7.10;41.80;;;;;;5030140;28;20636;-53
2023/12/06 10:47:59;;;;;;;2.78;2.03;;;7.20;41.60;;;;;;5031297;28;20651;-53
2023/12/06 10:50:25;;;;;;;7.70;3.70;;;7.20;41.70;;;;;;5031195;28;20166;-56
2023/12/06 10:52:54;;;;;;;4.53;3.83;;;7.20;41.60;;;;;;5031189;28;20596;-52
2023/12/06 10:55:22;;;;;;;3.92;2.55;;;7.20;41.60;;;;;;5033982;28;20166;-51
2023/12/06 10:57:52;;;;;;;3.13;2.83;;;7.30;41.60;;;;;;5034573;28;20166;-58
2023/12/06 11:00:18;;;;;;;10.10;3.42;;;7.30;41.70;;;;;;5034781;28;20162;-55
2023/12/06 11:02:44;;;;;;;7.97;3.67;;;7.20;41.30;;;;;;5034533;28;20190;-50
2023/12/06 11:05:11;;;;;;;2.63;2.43;;;7.20;41.60;;;;;;5034668;28;20174;-52
2023/12/06 11:08:01;;;;;;;9.18;4.97;;;7.20;41.30;;;;;;5034439;28;20169;-58
2023/12/06 11:10:38;;;;;;;4.03;3.83;;;7.20;41.90;;;;;;5034521;28;20201;-56
2023/12/06 11:13:27;;;;;;;5.78;3.85;;;7.20;41.40;;;;;;5034496;28;20190;-51
2023/12/06 11:16:14;;;;;;;3.10;2.03;;;7.20;41.40;;;;;;5034653;28;20576;-59
2023/12/06 11:18:45;;;;;;;5.93;3.15;;;7.20;41.50;;;;;;5034390;28;20190;-51
2023/12/06 11:21:13;;;;;;;4.60;4.13;;;7.20;41.50;;;;;;5034269;28;20599;-59
2023/12/06 11:23:45;;;;;;;7.85;6.60;;;7.20;41.70;;;;;;5034131;28;20188;-51
2023/12/06 11:26:10;;;;;;;4.75;3.65;;;7.20;41.80;;;;;;5034114;28;20170;-53
2023/12/06 11:28:39;;;;;;;8.23;6.90;;;7.30;41.60;;;;;;5034193;28;20602;-55
2023/12/06 11:31:05;;;;;;;4.90;3.17;;;7.40;41.70;;;;;;5034217;28;20174;-51
2023/12/06 11:33:31;;;;;;;4.75;3.55;;;7.40;41.50;;;;;;5034164;28;20237;-54
2023/12/06 11:35:57;;;;;;;19.43;3.93;;;7.40;41.60;;;;;;5033943;28;20664;-51
2023/12/06 11:38:36;;;;;;;6.47;4.47;;;7.50;41.50;;;;;;5033858;28;20460;-52
2023/12/06 11:41:04;;;;;;;5.20;4.03;;;7.60;41.50;;;;;;5033940;28;20174;-56
2023/12/06 11:43:39;;;;;;;5.88;4.15;;;7.60;41.70;;;;;;5033908;28;20194;-51
2023/12/06 11:46:07;;;;;;;3.65;3.35;;;7.60;41.70;;;;;;5033788;28;20178;-58
2023/12/06 11:48:40;;;;;;;4.03;2.67;;;7.60;41.80;;;;;;5033797;28;20181;-58
2023/12/06 11:51:06;;;;;;;4.47;3.50;;;7.60;42.00;;;;;;5033740;28;20166;-50
2023/12/06 11:53:35;;;;;;;6.75;4.05;;;7.50;42.30;;;;;;5033708;28;20284;-56
2023/12/06 11:56:01;;;;;;;7.60;4.90;;;7.50;42.30;;;;;;5033601;28;20178;-54
2023/12/06 11:58:30;;;;;;;5.63;3.45;;;7.50;42.60;;;;;;5033530;28;20194;-50
2023/12/06 12:00:57;;;;;;;5.70;3.00;;;7.50;42.70;;;;;;5033581;28;20273;-54
2023/12/06 12:03:25;;;;;;;4.53;1.98;;;7.50;42.70;;;;;;5033363;28;20248;-56
2023/12/06 12:05:51;;;;;;;4.88;4.20;;;7.50;42.80;;;;;;5033001;28;20174;-53
2023/12/06 12:08:18;;;;;;;9.15;4.40;;;7.50;43.00;;;;;;5033458;28;20166;-52
2023/12/06 12:10:43;;;;;;;1.52;1.40;;;7.50;42.90;;;;;;5033509;28;20213;-59
2023/12/06 12:13:20;;;;;;;9.63;4.87;;;7.60;42.80;;;;;;5033287;28;20216;-52
2023/12/06 12:16:01;;;;;;;6.85;3.88;;;7.60;42.50;;;;;;5033104;28;20162;-59
2023/12/06 12:18:28;;;;;;;11.60;6.38;;;7.60;42.50;;;;;;5033233;28;20707;-51
2023/12/06 12:20:56;;;;;;;5.32;4.65;;;8.20;43.00;;;;;;5033055;28;20162;-56
2023/12/06 12:23:22;;;;;;;2.88;2.45;;;7.60;42.80;;;;;;5033134;28;20194;-56
2023/12/06 12:25:49;;;;;;;10.00;5.20;;;7.60;42.80;;;;;;5032950;28;20168;-51
2023/12/06 12:28:17;;;;;;;4.07;2.15;;;7.70;42.80;;;;;;5033016;28;20615;-54
2023/12/06 12:30:43;;;;;;;3.45;1.88;;;7.70;42.80;;;;;;5033030;28;20162;-55
2023/12/06 12:33:11;;;;;;;11.70;3.95;;;7.70;42.60;;;;;;5032912;28;20233;-51
2023/12/06 12:35:38;;;;;;;4.75;4.13;;;7.70;42.60;;;;;;5032769;28;20166;-51
2023/12/06 12:38:04;;;;;;;14.43;6.93;;;7.70;42.50;;;;;;5032860;28;20174;-57
2023/12/06 12:40:30;;;;;;;3.60;3.23;;;7.70;42.50;;;;;;5032856;28;20168;-55
2023/12/06 12:42:56;;;;;;;13.52;3.08;;;7.70;42.70;;;;;;5032651;28;20190;-51
2023/12/06 12:45:22;;;;;;;3.50;2.75;;;7.70;42.60;;;;;;5032819;28;20178;-53
2023/12/06 12:47:48;;;;;;;7.23;4.10;;;7.70;42.60;;;;;;5032522;28;20231;-56
2023/12/06 12:50:18;;;;;;;11.75;4.25;;;7.70;42.80;;;;;;5032734;28;20405;-49
2023/12/06 12:52:44;;;;;;;4.22;2.92;;;7.70;42.70;;;;;;5032572;28;20584;-54